sensor_id;sensor_type;location;lat;lon;timestamp;P1;durP1;ratioP1;P2;durP2;ratioP2
33006;SDS011;19361;51.598;7.650;2023-05-15T00:03:46;7.78;;;7.13;;
33006;SDS011;19361;51.598;7.650;2023-05-15T00:09:07;9.07;;;7.40;;
33006;SDS011;19361;51.598;7.650;2023-05-15T00:14:28;8.73;;;7.97;;
33006;SDS011;19361;51.598;7.650;2023-05-15T00:19:49;24.45;;;22.02;;
33006;SDS011;19361;51.598;7.650;2023-05-15T00:25:10;21.83;;;19.52;;
33006;SDS011;19361;51.598;7.650;2023-05-15T00:30:31;25.95;;;23.15;;
33006;SDS011;19361;51.598;7.650;2023-05-15T00:35:52;27.20;;;24.52;;
33006;SDS011;19361;51.598;7.650;2023-05-15T00:41:13;23.98;;;21.55;;
33006;SDS011;19361;51.598;7.650;2023-05-15T00:46:36;19.08;;;17.17;;
33006;SDS011;19361;51.598;7.650;2023-05-15T00:51:59;18.83;;;16.83;;
33006;SDS011;19361;51.598;7.650;2023-05-15T00:57:24;17.15;;;15.35;;
33006;SDS011;19361;51.598;7.650;2023-05-15T01:02:47;14.73;;;13.30;;
33006;SDS011;19361;51.598;7.650;2023-05-15T01:08:15;14.45;;;12.98;;
33006;SDS011;19361;51.598;7.650;2023-05-15T01:13:47;13.35;;;12.10;;
33006;SDS011;19361;51.598;7.650;2023-05-15T01:19:08;14.73;;;13.25;;
33006;SDS011;19361;51.598;7.650;2023-05-15T01:24:33;18.92;;;16.98;;
33006;SDS011;19361;51.598;7.650;2023-05-15T01:41:45;17.33;;;15.77;;
33006;SDS011;19361;51.598;7.650;2023-05-15T01:47:16;15.27;;;13.88;;
33006;SDS011;19361;51.598;7.650;2023-05-15T01:52:42;14.90;;;13.30;;
33006;SDS011;19361;51.598;7.650;2023-05-15T01:58:07;14.02;;;12.50;;
33006;SDS011;19361;51.598;7.650;2023-05-15T02:03:30;13.98;;;12.57;;
33006;SDS011;19361;51.598;7.650;2023-05-15T02:08:53;15.00;;;11.88;;
33006;SDS011;19361;51.598;7.650;2023-05-15T02:14:17;12.88;;;11.55;;
33006;SDS011;19361;51.598;7.650;2023-05-15T02:19:38;11.55;;;10.55;;
33006;SDS011;19361;51.598;7.650;2023-05-15T02:24:59;11.25;;;10.13;;
33006;SDS011;19361;51.598;7.650;2023-05-15T02:30:34;10.65;;;9.25;;
33006;SDS011;19361;51.598;7.650;2023-05-15T02:36:07;9.23;;;8.20;;
33006;SDS011;19361;51.598;7.650;2023-05-15T02:41:31;8.07;;;7.05;;
33006;SDS011;19361;51.598;7.650;2023-05-15T02:46:54;7.97;;;6.97;;
33006;SDS011;19361;51.598;7.650;2023-05-15T02:52:16;7.63;;;5.95;;
33006;SDS011;19361;51.598;7.650;2023-05-15T02:57:37;7.07;;;6.00;;
33006;SDS011;19361;51.598;7.650;2023-05-15T03:02:58;6.43;;;5.82;;
33006;SDS011;19361;51.598;7.650;2023-05-15T03:08:20;6.20;;;5.65;;
33006;SDS011;19361;51.598;7.650;2023-05-15T03:13:41;8.55;;;5.47;;
33006;SDS011;19361;51.598;7.650;2023-05-15T03:19:02;5.35;;;4.95;;
33006;SDS011;19361;51.598;7.650;2023-05-15T03:24:23;7.38;;;5.18;;
33006;SDS011;19361;51.598;7.650;2023-05-15T03:29:44;6.70;;;4.53;;
33006;SDS011;19361;51.598;7.650;2023-05-15T03:35:05;5.20;;;4.50;;
33006;SDS011;19361;51.598;7.650;2023-05-15T03:40:27;7.05;;;5.65;;
33006;SDS011;19361;51.598;7.650;2023-05-15T03:45:48;6.97;;;5.57;;
33006;SDS011;19361;51.598;7.650;2023-05-15T03:51:09;5.95;;;5.45;;
33006;SDS011;19361;51.598;7.650;2023-05-15T03:56:31;6.15;;;5.57;;
33006;SDS011;19361;51.598;7.650;2023-05-15T04:01:52;5.47;;;4.97;;
33006;SDS011;19361;51.598;7.650;2023-05-15T04:07:13;5.30;;;4.80;;
33006;SDS011;19361;51.598;7.650;2023-05-15T04:12:34;5.88;;;5.32;;
33006;SDS011;19361;51.598;7.650;2023-05-15T04:17:55;6.10;;;5.22;;
33006;SDS011;19361;51.598;7.650;2023-05-15T04:23:16;6.53;;;5.70;;
33006;SDS011;19361;51.598;7.650;2023-05-15T04:28:38;8.32;;;7.53;;
33006;SDS011;19361;51.598;7.650;2023-05-15T04:33:59;14.45;;;8.45;;
33006;SDS011;19361;51.598;7.650;2023-05-15T04:39:20;13.70;;;9.50;;
33006;SDS011;19361;51.598;7.650;2023-05-15T04:44:41;16.75;;;11.40;;
33006;SDS011;19361;51.598;7.650;2023-05-15T04:50:02;15.88;;;13.90;;
33006;SDS011;19361;51.598;7.650;2023-05-15T04:55:23;21.45;;;16.23;;
33006;SDS011;19361;51.598;7.650;2023-05-15T05:00:44;22.85;;;17.83;;
33006;SDS011;19361;51.598;7.650;2023-05-15T05:06:05;24.05;;;19.90;;
33006;SDS011;19361;51.598;7.650;2023-05-15T05:11:27;49.28;;;27.40;;
33006;SDS011;19361;51.598;7.650;2023-05-15T05:16:48;51.47;;;30.58;;
33006;SDS011;19361;51.598;7.650;2023-05-15T05:22:09;54.55;;;28.33;;
33006;SDS011;19361;51.598;7.650;2023-05-15T05:27:30;54.28;;;28.98;;
33006;SDS011;19361;51.598;7.650;2023-05-15T05:32:51;43.83;;;30.30;;
33006;SDS011;19361;51.598;7.650;2023-05-15T05:38:12;40.63;;;30.20;;
33006;SDS011;19361;51.598;7.650;2023-05-15T05:43:34;42.25;;;31.15;;
33006;SDS011;19361;51.598;7.650;2023-05-15T05:48:55;51.05;;;35.25;;
33006;SDS011;19361;51.598;7.650;2023-05-15T05:54:16;52.15;;;39.25;;
33006;SDS011;19361;51.598;7.650;2023-05-15T05:59:37;52.42;;;36.60;;
33006;SDS011;19361;51.598;7.650;2023-05-15T06:04:58;48.28;;;37.35;;
33006;SDS011;19361;51.598;7.650;2023-05-15T06:10:20;49.30;;;37.55;;
33006;SDS011;19361;51.598;7.650;2023-05-15T06:15:42;49.92;;;38.40;;
33006;SDS011;19361;51.598;7.650;2023-05-15T06:21:05;50.92;;;39.08;;
33006;SDS011;19361;51.598;7.650;2023-05-15T06:26:26;45.53;;;35.40;;
33006;SDS011;19361;51.598;7.650;2023-05-15T06:31:47;50.53;;;38.15;;
33006;SDS011;19361;51.598;7.650;2023-05-15T06:37:08;54.28;;;38.42;;
33006;SDS011;19361;51.598;7.650;2023-05-15T06:42:29;54.55;;;40.65;;
33006;SDS011;19361;51.598;7.650;2023-05-15T06:47:50;54.08;;;38.38;;
33006;SDS011;19361;51.598;7.650;2023-05-15T06:53:11;57.72;;;42.83;;
33006;SDS011;19361;51.598;7.650;2023-05-15T06:58:32;59.45;;;42.55;;
33006;SDS011;19361;51.598;7.650;2023-05-15T07:03:53;57.20;;;40.88;;
33006;SDS011;19361;51.598;7.650;2023-05-15T07:09:15;70.65;;;47.90;;
33006;SDS011;19361;51.598;7.650;2023-05-15T07:14:36;71.25;;;48.30;;
33006;SDS011;19361;51.598;7.650;2023-05-15T07:19:57;77.78;;;53.00;;
33006;SDS011;19361;51.598;7.650;2023-05-15T07:25:18;76.75;;;53.55;;
33006;SDS011;19361;51.598;7.650;2023-05-15T07:30:39;76.05;;;51.60;;
33006;SDS011;19361;51.598;7.650;2023-05-15T07:36:00;77.60;;;53.83;;
33006;SDS011;19361;51.598;7.650;2023-05-15T07:41:21;76.10;;;54.47;;
33006;SDS011;19361;51.598;7.650;2023-05-15T07:46:43;76.72;;;51.90;;
33006;SDS011;19361;51.598;7.650;2023-05-15T07:52:04;83.85;;;55.63;;
33006;SDS011;19361;51.598;7.650;2023-05-15T07:57:26;84.43;;;57.53;;
33006;SDS011;19361;51.598;7.650;2023-05-15T08:02:47;88.10;;;57.70;;
33006;SDS011;19361;51.598;7.650;2023-05-15T08:08:08;89.32;;;58.92;;
33006;SDS011;19361;51.598;7.650;2023-05-15T08:13:29;91.75;;;57.88;;
33006;SDS011;19361;51.598;7.650;2023-05-15T08:18:50;94.32;;;59.17;;
33006;SDS011;19361;51.598;7.650;2023-05-15T08:24:17;79.27;;;51.80;;
33006;SDS011;19361;51.598;7.650;2023-05-15T08:29:38;74.45;;;50.13;;
33006;SDS011;19361;51.598;7.650;2023-05-15T08:34:59;74.78;;;51.17;;
33006;SDS011;19361;51.598;7.650;2023-05-15T08:40:21;71.03;;;49.60;;
33006;SDS011;19361;51.598;7.650;2023-05-15T08:45:42;57.00;;;40.58;;
33006;SDS011;19361;51.598;7.650;2023-05-15T08:51:03;60.95;;;42.17;;
33006;SDS011;19361;51.598;7.650;2023-05-15T08:56:29;55.72;;;42.63;;
33006;SDS011;19361;51.598;7.650;2023-05-15T09:01:51;55.65;;;42.50;;
33006;SDS011;19361;51.598;7.650;2023-05-15T09:07:13;57.25;;;41.30;;
33006;SDS011;19361;51.598;7.650;2023-05-15T09:12:35;54.88;;;41.85;;
33006;SDS011;19361;51.598;7.650;2023-05-15T09:18:03;48.63;;;37.67;;
33006;SDS011;19361;51.598;7.650;2023-05-15T09:23:27;52.90;;;40.03;;
33006;SDS011;19361;51.598;7.650;2023-05-15T09:28:48;49.50;;;39.05;;
33006;SDS011;19361;51.598;7.650;2023-05-15T09:34:09;48.92;;;38.25;;
33006;SDS011;19361;51.598;7.650;2023-05-15T09:39:30;49.83;;;38.72;;
33006;SDS011;19361;51.598;7.650;2023-05-15T09:44:52;43.55;;;34.95;;
33006;SDS011;19361;51.598;7.650;2023-05-15T09:50:17;40.88;;;30.77;;
33006;SDS011;19361;51.598;7.650;2023-05-15T09:55:42;36.22;;;30.33;;
33006;SDS011;19361;51.598;7.650;2023-05-15T10:01:03;42.90;;;28.58;;
33006;SDS011;19361;51.598;7.650;2023-05-15T10:06:37;41.37;;;31.83;;
33006;SDS011;19361;51.598;7.650;2023-05-15T10:12:00;35.35;;;26.73;;
33006;SDS011;19361;51.598;7.650;2023-05-15T10:17:22;34.10;;;28.67;;
33006;SDS011;19361;51.598;7.650;2023-05-15T10:22:52;33.28;;;25.30;;
33006;SDS011;19361;51.598;7.650;2023-05-15T10:28:18;26.73;;;22.73;;
33006;SDS011;19361;51.598;7.650;2023-05-15T10:33:39;20.80;;;18.55;;
33006;SDS011;19361;51.598;7.650;2023-05-15T10:39:02;21.98;;;18.95;;
33006;SDS011;19361;51.598;7.650;2023-05-15T10:44:25;21.08;;;18.85;;
33006;SDS011;19361;51.598;7.650;2023-05-15T10:49:46;20.77;;;18.67;;
33006;SDS011;19361;51.598;7.650;2023-05-15T10:55:08;21.30;;;18.02;;
33006;SDS011;19361;51.598;7.650;2023-05-15T11:00:35;19.00;;;16.98;;
33006;SDS011;19361;51.598;7.650;2023-05-15T11:06:09;21.17;;;18.88;;
33006;SDS011;19361;51.598;7.650;2023-05-15T11:17:11;21.33;;;18.92;;
33006;SDS011;19361;51.598;7.650;2023-05-15T11:22:36;19.55;;;17.50;;
33006;SDS011;19361;51.598;7.650;2023-05-15T11:27:59;20.08;;;18.00;;
33006;SDS011;19361;51.598;7.650;2023-05-15T11:33:23;19.95;;;17.33;;
33006;SDS011;19361;51.598;7.650;2023-05-15T11:38:49;25.15;;;16.38;;
33006;SDS011;19361;51.598;7.650;2023-05-15T11:44:10;17.92;;;14.55;;
33006;SDS011;19361;51.598;7.650;2023-05-15T11:49:32;22.88;;;16.80;;
33006;SDS011;19361;51.598;7.650;2023-05-15T11:54:54;16.70;;;15.05;;
33006;SDS011;19361;51.598;7.650;2023-05-15T12:00:16;15.38;;;13.88;;
33006;SDS011;19361;51.598;7.650;2023-05-15T12:05:39;13.57;;;12.20;;
33006;SDS011;19361;51.598;7.650;2023-05-15T12:11:01;12.68;;;11.35;;
33006;SDS011;19361;51.598;7.650;2023-05-15T12:16:24;11.80;;;10.13;;
33006;SDS011;19361;51.598;7.650;2023-05-15T12:21:46;14.18;;;12.30;;
33006;SDS011;19361;51.598;7.650;2023-05-15T12:27:07;10.52;;;9.02;;
33006;SDS011;19361;51.598;7.650;2023-05-15T12:32:30;9.88;;;7.80;;
33006;SDS011;19361;51.598;7.650;2023-05-15T12:37:54;8.85;;;7.93;;
33006;SDS011;19361;51.598;7.650;2023-05-15T12:43:15;9.13;;;6.40;;
33006;SDS011;19361;51.598;7.650;2023-05-15T12:48:36;10.23;;;7.32;;
33006;SDS011;19361;51.598;7.650;2023-05-15T12:53:57;7.13;;;6.30;;
33006;SDS011;19361;51.598;7.650;2023-05-15T12:59:18;10.10;;;6.18;;
33006;SDS011;19361;51.598;7.650;2023-05-15T13:04:39;8.98;;;5.20;;
33006;SDS011;19361;51.598;7.650;2023-05-15T13:10:01;5.07;;;4.57;;
33006;SDS011;19361;51.598;7.650;2023-05-15T13:15:33;10.38;;;5.43;;
33006;SDS011;19361;51.598;7.650;2023-05-15T13:20:57;6.30;;;5.07;;
33006;SDS011;19361;51.598;7.650;2023-05-15T13:26:18;6.95;;;4.00;;
33006;SDS011;19361;51.598;7.650;2023-05-15T13:31:39;11.38;;;4.75;;
33006;SDS011;19361;51.598;7.650;2023-05-15T13:37:00;5.20;;;4.15;;
33006;SDS011;19361;51.598;7.650;2023-05-15T13:42:21;8.93;;;6.38;;
33006;SDS011;19361;51.598;7.650;2023-05-15T13:47:42;6.03;;;5.03;;
33006;SDS011;19361;51.598;7.650;2023-05-15T13:53:03;6.22;;;3.88;;
33006;SDS011;19361;51.598;7.650;2023-05-15T13:58:25;5.10;;;3.17;;
33006;SDS011;19361;51.598;7.650;2023-05-15T14:03:46;3.22;;;2.92;;
33006;SDS011;19361;51.598;7.650;2023-05-15T14:09:07;3.88;;;3.30;;
33006;SDS011;19361;51.598;7.650;2023-05-15T14:14:28;5.63;;;3.28;;
33006;SDS011;19361;51.598;7.650;2023-05-15T14:19:50;3.78;;;3.05;;
33006;SDS011;19361;51.598;7.650;2023-05-15T14:25:11;4.18;;;3.50;;
33006;SDS011;19361;51.598;7.650;2023-05-15T14:30:32;4.40;;;3.60;;
33006;SDS011;19361;51.598;7.650;2023-05-15T14:35:53;4.35;;;4.05;;
33006;SDS011;19361;51.598;7.650;2023-05-15T14:41:15;4.03;;;3.70;;
33006;SDS011;19361;51.598;7.650;2023-05-15T14:46:36;4.20;;;3.80;;
33006;SDS011;19361;51.598;7.650;2023-05-15T14:51:57;3.72;;;3.42;;
33006;SDS011;19361;51.598;7.650;2023-05-15T14:57:18;3.97;;;3.55;;
33006;SDS011;19361;51.598;7.650;2023-05-15T15:02:39;3.83;;;3.40;;
33006;SDS011;19361;51.598;7.650;2023-05-15T15:13:24;4.15;;;3.30;;
33006;SDS011;19361;51.598;7.650;2023-05-15T15:18:46;3.70;;;3.20;;
33006;SDS011;19361;51.598;7.650;2023-05-15T15:24:07;4.55;;;3.25;;
33006;SDS011;19361;51.598;7.650;2023-05-15T15:29:29;5.32;;;4.22;;
33006;SDS011;19361;51.598;7.650;2023-05-15T15:34:50;6.43;;;5.47;;
33006;SDS011;19361;51.598;7.650;2023-05-15T15:40:11;7.13;;;6.43;;
33006;SDS011;19361;51.598;7.650;2023-05-15T15:45:32;9.50;;;6.55;;
33006;SDS011;19361;51.598;7.650;2023-05-15T15:50:53;9.18;;;7.30;;
33006;SDS011;19361;51.598;7.650;2023-05-15T15:56:14;8.07;;;7.15;;
33006;SDS011;19361;51.598;7.650;2023-05-15T16:01:35;7.60;;;6.90;;
33006;SDS011;19361;51.598;7.650;2023-05-15T16:06:56;8.07;;;6.78;;
33006;SDS011;19361;51.598;7.650;2023-05-15T16:12:17;10.05;;;6.55;;
33006;SDS011;19361;51.598;7.650;2023-05-15T16:17:38;7.82;;;6.65;;
33006;SDS011;19361;51.598;7.650;2023-05-15T17:23:20;8.57;;;5.60;;
33006;SDS011;19361;51.598;7.650;2023-05-15T17:28:41;7.22;;;6.53;;
33006;SDS011;19361;51.598;7.650;2023-05-15T17:34:02;8.88;;;6.78;;
33006;SDS011;19361;51.598;7.650;2023-05-15T17:39:23;8.38;;;7.55;;
33006;SDS011;19361;51.598;7.650;2023-05-15T17:44:44;8.32;;;7.53;;
33006;SDS011;19361;51.598;7.650;2023-05-15T17:50:05;8.30;;;7.30;;
33006;SDS011;19361;51.598;7.650;2023-05-15T17:55:27;14.48;;;8.05;;
33006;SDS011;19361;51.598;7.650;2023-05-15T18:00:49;12.77;;;8.88;;
33006;SDS011;19361;51.598;7.650;2023-05-15T18:06:11;9.88;;;7.97;;
33006;SDS011;19361;51.598;7.650;2023-05-15T18:11:32;12.98;;;7.57;;
33006;SDS011;19361;51.598;7.650;2023-05-15T18:16:54;6.90;;;6.13;;
33006;SDS011;19361;51.598;7.650;2023-05-15T18:22:15;7.65;;;6.60;;
33006;SDS011;19361;51.598;7.650;2023-05-15T18:27:36;8.93;;;7.20;;
33006;SDS011;19361;51.598;7.650;2023-05-15T18:32:57;9.52;;;8.48;;
33006;SDS011;19361;51.598;7.650;2023-05-15T18:38:18;13.63;;;9.73;;
33006;SDS011;19361;51.598;7.650;2023-05-15T18:43:40;13.15;;;10.43;;
33006;SDS011;19361;51.598;7.650;2023-05-15T18:49:01;16.13;;;11.65;;
33006;SDS011;19361;51.598;7.650;2023-05-15T18:54:22;11.95;;;10.52;;
33006;SDS011;19361;51.598;7.650;2023-05-15T18:59:44;22.10;;;13.13;;
33006;SDS011;19361;51.598;7.650;2023-05-15T19:05:05;17.77;;;12.38;;
33006;SDS011;19361;51.598;7.650;2023-05-15T19:10:27;12.50;;;11.20;;
33006;SDS011;19361;51.598;7.650;2023-05-15T19:15:49;15.35;;;11.80;;
33006;SDS011;19361;51.598;7.650;2023-05-15T19:21:11;15.43;;;11.68;;
33006;SDS011;19361;51.598;7.650;2023-05-15T19:26:34;17.98;;;11.60;;
33006;SDS011;19361;51.598;7.650;2023-05-15T19:31:55;13.65;;;12.25;;
33006;SDS011;19361;51.598;7.650;2023-05-15T19:37:16;14.82;;;11.60;;
33006;SDS011;19361;51.598;7.650;2023-05-15T19:42:38;15.30;;;11.48;;
33006;SDS011;19361;51.598;7.650;2023-05-15T19:47:59;12.35;;;10.45;;
33006;SDS011;19361;51.598;7.650;2023-05-15T19:53:20;13.73;;;11.07;;
33006;SDS011;19361;51.598;7.650;2023-05-15T19:58:41;13.23;;;11.60;;
33006;SDS011;19361;51.598;7.650;2023-05-15T20:04:02;16.58;;;12.75;;
33006;SDS011;19361;51.598;7.650;2023-05-15T20:09:23;17.83;;;14.32;;
33006;SDS011;19361;51.598;7.650;2023-05-15T20:14:48;12.05;;;10.85;;
33006;SDS011;19361;51.598;7.650;2023-05-15T20:20:09;17.77;;;11.98;;
33006;SDS011;19361;51.598;7.650;2023-05-15T20:25:31;12.68;;;10.75;;
33006;SDS011;19361;51.598;7.650;2023-05-15T20:30:54;18.08;;;13.57;;
33006;SDS011;19361;51.598;7.650;2023-05-15T20:36:16;17.38;;;12.45;;
33006;SDS011;19361;51.598;7.650;2023-05-15T20:41:37;15.13;;;13.00;;
33006;SDS011;19361;51.598;7.650;2023-05-15T20:46:58;14.65;;;11.65;;
33006;SDS011;19361;51.598;7.650;2023-05-15T20:52:19;13.00;;;11.63;;
33006;SDS011;19361;51.598;7.650;2023-05-15T20:57:41;14.05;;;11.35;;
33006;SDS011;19361;51.598;7.650;2023-05-15T21:03:06;13.63;;;11.18;;
33006;SDS011;19361;51.598;7.650;2023-05-15T21:08:28;13.90;;;12.07;;
33006;SDS011;19361;51.598;7.650;2023-05-15T21:13:49;13.32;;;11.35;;
33006;SDS011;19361;51.598;7.650;2023-05-15T21:19:10;13.52;;;11.90;;
33006;SDS011;19361;51.598;7.650;2023-05-15T21:24:32;16.25;;;13.55;;
33006;SDS011;19361;51.598;7.650;2023-05-15T21:29:53;14.68;;;12.77;;
33006;SDS011;19361;51.598;7.650;2023-05-15T21:35:14;15.75;;;12.65;;
33006;SDS011;19361;51.598;7.650;2023-05-15T21:40:36;16.88;;;12.45;;
33006;SDS011;19361;51.598;7.650;2023-05-15T21:45:57;13.25;;;11.85;;
33006;SDS011;19361;51.598;7.650;2023-05-15T21:51:18;15.18;;;12.25;;
33006;SDS011;19361;51.598;7.650;2023-05-15T21:56:39;13.85;;;12.48;;
33006;SDS011;19361;51.598;7.650;2023-05-15T22:02:00;15.88;;;12.95;;
33006;SDS011;19361;51.598;7.650;2023-05-15T22:07:21;18.17;;;11.60;;
33006;SDS011;19361;51.598;7.650;2023-05-15T22:12:42;16.98;;;13.15;;
33006;SDS011;19361;51.598;7.650;2023-05-15T22:18:03;13.48;;;11.30;;
33006;SDS011;19361;51.598;7.650;2023-05-15T22:23:25;17.45;;;14.02;;
33006;SDS011;19361;51.598;7.650;2023-05-15T22:28:46;16.85;;;13.18;;
33006;SDS011;19361;51.598;7.650;2023-05-15T22:34:08;17.65;;;13.18;;
33006;SDS011;19361;51.598;7.650;2023-05-15T22:39:29;17.23;;;13.38;;
33006;SDS011;19361;51.598;7.650;2023-05-15T22:44:50;16.17;;;12.57;;
33006;SDS011;19361;51.598;7.650;2023-05-15T22:50:11;15.43;;;13.15;;
33006;SDS011;19361;51.598;7.650;2023-05-15T22:55:32;15.65;;;13.18;;
33006;SDS011;19361;51.598;7.650;2023-05-15T23:00:53;18.67;;;14.32;;
33006;SDS011;19361;51.598;7.650;2023-05-15T23:06:17;18.02;;;13.32;;
33006;SDS011;19361;51.598;7.650;2023-05-15T23:11:38;13.13;;;11.73;;
33006;SDS011;19361;51.598;7.650;2023-05-15T23:17:00;14.68;;;11.90;;
33006;SDS011;19361;51.598;7.650;2023-05-15T23:22:21;15.02;;;11.95;;
33006;SDS011;19361;51.598;7.650;2023-05-15T23:27:42;11.45;;;10.25;;
33006;SDS011;19361;51.598;7.650;2023-05-15T23:33:03;11.27;;;10.07;;
33006;SDS011;19361;51.598;7.650;2023-05-15T23:38:24;11.00;;;9.52;;
33006;SDS011;19361;51.598;7.650;2023-05-15T23:43:46;11.45;;;9.77;;
33006;SDS011;19361;51.598;7.650;2023-05-15T23:49:09;14.50;;;8.45;;
33006;SDS011;19361;51.598;7.650;2023-05-15T23:54:30;9.93;;;8.65;;
33006;SDS011;19361;51.598;7.650;2023-05-15T23:59:51;11.63;;;8.80;;
